Detall de PIREP

Printer-friendly versionPDF version

[2016/11/06 15:28:00]
Flight IATA:CT0003
Pilot Number:012
Company ICAO:CAT
Aircraft Type:AT72/F
PAX:68
Departing Airport: LIRN
Destination Airport: LICJ
Alternate Airport:LIRF
Online: VATSIM
Route:PEVIR M729 DELER M742 ROSAS
Flight Level:F190
No Slew and time accel
No pause
Crash detect
Detect pilot in Cockpit between each 30 and 45 minutes
15:28 Zero fuel Weight: 42758 Lbs, Fuel Weight: 5712 Lbs
15:28 VATSIM:LIRN 061450Z 18008KT 100V240 9999 SCT025 BKN060 21/16 Q1006 REDZ NOSIG
15:28 VATSIM:LICJ 061450Z 18017KT CAVOK 25/12 Q1008
15:38 Parking Brakes off
15:44 Take-off
15:44 Take off Weight: 48398 Lbs
15:44 Wind: 210º @ 015 Knots Heading: 239º
15:44 POS N40º 52´ 51´´ E014º 16´ 47´´
15:44 Flaps:1 at 150 Knots
15:44 Gear Up: 150 Knots
15:44 Flaps:0 at 144 Knots
15:55 TOC
15:55 Fuel Weight: 5221 Lb
15:59 Wind:237º@056 Knots Heading: 140º Ground Speed: 280 Knots Altitude 18763 ft
16:14 Wind:247º@061 Knots Heading: 208º Ground Speed: 229 Knots Altitude 18825 ft
16:15 TOD
16:15 Fuel Weight: 4718 Lb
16:29 Wind:201º@018 Knots Heading: 230º Ground Speed: 200 Knots Altitude 3061 ft
16:30 Flaps:1 at 227 Knots
16:31 Gear Down: 216 Knots
16:31 Flaps:2 at 149 Knots
16:35 TouchDown:Rate -173 ft/min Speed: 104 Knots
16:35 VATSIM:LICJ 061620Z 21013KT CAVOK 23/10 Q1008
16:35 Land
16:35 Wind:197º@018 Knots
16:35 Heading: 200º
16:35 Flight Duration: 00:51
16:35 Landing Weight: 47121 Lbs
16:35 POS N38º 10´ 26´´ E013º 05´ 23´´
16:39 Parking brakes on
16:39 Block to Block Duration: 01:01
16:39 Final Fuel: 4332 Lbls
16:39 Spent Fuel: 1380 Lbls
16:39 Flight Length: 180 NM
16:39 TOD Land Length: 69 NM

Exportar CSV

Powered by Drupal - Modified by Danger4k